宮崎空港の過去48時間の天気

宮崎空港 (Miyazaki)

現在時刻: 1/19 20:31 JST (1/19 11:31 UTC) 以下の時間は現地時間です。

過去48時間のMETAR気象情報
時間 風向 風速(m/s) 視程 気温(℃) 湿度(%) 気圧(hPa) 天気現象
19 20:00 西北西 3 10km以上 13 62 1020
19 19:00 西 1 10km以上 14 55 1020
19 18:00 西 2 10km以上 15 51 1020
19 17:00 西南西 2 10km以上 16 45 1020
19 16:00 西南西 5 10km以上 16 42 1021
19 15:00 西南西 7 10km以上 16 42 1021
19 14:00 西 7 10km以上 17 39 1021
19 13:00 西北西 6 10km以上 16 36 1022
19 12:34 北西 6 10km以上 16 36 1023
19 12:00 西南西 5 10km以上 15 45 1024
19 11:19 西 8 10km以上 14 44 1024
19 11:00 西 11 10km以上 14 41 1025
19 10:29 西 8 10km以上 14 44 1025
19 10:00 北西 3 10km以上 12 44 1025
19 09:00 西北西 4 10km以上 6 65 1026
19 08:00 西北西 5 10km以上 3 75 1025
19 07:00 西北西 4 10km以上 2 81 1025
19 06:10 西北西 5 10km以上 2 81 1024
18 21:00 西 5 10km以上 8 42 1025
18 20:00 西 5 10km以上 9 46 1025
18 19:00 西北西 4 10km以上 9 50 1024
18 18:00 南西 3 10km以上 11 40 1024
18 17:00 4 10km以上 13 47 1023
18 16:00 南南東 7 10km以上 13 44 1023
18 15:00 南南東 7 10km以上 13 41 1023
18 14:00 南東 4 10km以上 14 36 1023
18 13:00 南東 3 10km以上 13 35 1024
18 12:00 3 10km以上 12 35 1024
18 11:00 西南西 2 10km以上 12 35 1026
18 10:00 西 5 10km以上 10 43 1026
18 09:00 西 5 10km以上 8 49 1025
18 08:00 西 4 10km以上 5 65 1025
18 07:00 西 4 10km以上 2 75 1024
18 06:10 西北西 4 10km以上 3 70 1024
17 21:00 西 8 10km以上 6 61 1021
RJFM 191100Z 29005KT 9999 FEW030 SCT060 BKN070 13/06 Q1020
RJFM 191000Z 26002KT 9999 FEW030 BKN060 BKN070 14/05 Q1020
RJFM 190900Z 26003KT 9999 FEW030 BKN060 BKN070 15/05 Q1020
RJFM 190800Z 25003KT 9999 FEW030 SCT060 BKN070 16/04 Q1020
RJFM 190700Z 25009KT 9999 FEW030 SCT060 16/03 Q1021
RJFM 190600Z 25013KT 9999 FEW030 SCT060 16/03 Q1021
RJFM 190500Z 26013KT 9999 FEW030 17/03 Q1021
RJFM 190400Z 29012KT 240V310 9999 FEW030 16/01 Q1022
RJFM 190334Z 31012KT 9999 FEW030 16/01 Q1023 RMK 1CU030 A3022
RJFM 190300Z 24010KT 9999 FEW030 15/03 Q1024
RJFM 190219Z 26016G26KT 9999 FEW030 14/02 Q1024 RMK 1CU030 A3026
RJFM 190200Z 27021KT 9999 FEW030 14/01 Q1025
RJFM 190129Z 27016KT 9999 FEW030 14/02 Q1025 RMK 1CU030 A3029
RJFM 190100Z 31006KT 280V350 9999 FEW030 12/00 Q1025
RJFM 190000Z 30007KT 9999 FEW030 06/M00 Q1026
RJFM 182300Z 29009KT 9999 FEW030 03/M01 Q1025
RJFM 182200Z 29008KT 9999 FEW030 02/M01 Q1025
RJFM 182110Z 29009KT 9999 FEW030 02/M01 Q1024 RMK 1CU030 A3026
RJFM 181200Z 28009KT 9999 FEW030 08/M04 Q1025
RJFM 181100Z 28010KT 9999 FEW030 SCT/// 09/M02 Q1025
RJFM 181000Z 29007KT 9999 FEW030 09/M01 Q1024
RJFM 180900Z 23005KT 9999 FEW030 11/M02 Q1024
RJFM 180800Z 18008KT CAVOK 13/02 Q1023
RJFM 180700Z 16013KT CAVOK 13/01 Q1023
RJFM 180600Z 15013KT 9999 FEW030 13/M00 Q1023
RJFM 180500Z 13008KT 9999 FEW030 14/M01 Q1023
RJFM 180400Z 13006KT CAVOK 13/M02 Q1024
RJFM 180300Z 10005KT CAVOK 12/M03 Q1024
RJFM 180200Z 25004KT 200V310 CAVOK 12/M03 Q1026
RJFM 180100Z 27009KT 9999 FEW030 10/M02 Q1026
RJFM 180000Z 27010KT 9999 FEW030 08/M02 Q1025
RJFM 172300Z 28008KT 9999 FEW030 05/M01 Q1025
RJFM 172200Z 28007KT 9999 FEW030 02/M02 Q1024
RJFM 172110Z 29007KT 9999 FEW030 03/M02 Q1024 RMK 1CU030 A3024
RJFM 171200Z 27015KT 9999 FEW030 06/M01 Q1021